createdAt,value
2018-08-28T07:52:26.798Z,1
2018-08-28T07:52:59.415Z,0.7
2018-08-28T07:53:15.182Z,0.7
2018-08-28T07:53:31.060Z,1
2018-08-28T07:53:46.894Z,1
2018-08-28T07:54:03.078Z,0.7
2018-08-28T07:54:19.478Z,0.8
2018-08-28T07:54:35.679Z,0.8
2018-08-28T07:54:51.550Z,0.9
2018-08-28T07:55:07.379Z,1
2018-08-28T07:55:23.164Z,0.9
2018-08-28T07:55:39.078Z,0.9
2018-08-28T07:55:55.495Z,1
2018-08-28T07:56:12.360Z,1
2018-08-28T07:56:28.492Z,1
2018-08-28T07:56:44.742Z,0.9
2018-08-28T07:57:02.020Z,0.8
2018-08-28T07:57:18.119Z,0.8
2018-08-28T07:57:34.555Z,0.8
2018-08-28T07:57:51.641Z,0.9
2018-08-28T07:58:07.957Z,0.8
2018-08-28T07:58:24.063Z,0.7
2018-08-28T07:58:41.036Z,0.7
2018-08-28T07:58:57.210Z,0.9
2018-08-28T07:59:13.347Z,1.4
2018-08-28T07:59:29.469Z,1.3
2018-08-28T07:59:45.615Z,0.7
2018-08-28T08:00:01.879Z,0.9
2018-08-28T08:00:17.918Z,1.1
2018-08-28T08:00:33.961Z,1.4
2018-08-28T08:00:49.930Z,1.2
2018-08-28T08:01:05.995Z,0.8
2018-08-28T08:01:22.151Z,0.8
2018-08-28T08:01:38.213Z,0.6
2018-08-28T08:01:54.516Z,0.8
2018-08-28T08:02:10.626Z,0.8
2018-08-28T08:02:26.752Z,0.7
2018-08-28T08:02:42.592Z,0.7
2018-08-28T08:02:58.879Z,0.6
2018-08-28T08:03:15.002Z,0.6
2018-08-28T08:03:31.161Z,0.7
2018-08-28T08:03:47.364Z,0.6
2018-08-28T08:04:03.495Z,0.6
2018-08-28T08:04:19.768Z,0.6
2018-08-28T08:04:35.968Z,0.6
2018-08-28T08:04:53.065Z,0.6
2018-08-28T08:05:09.160Z,0.6
2018-08-28T08:05:25.159Z,0.5
2018-08-28T08:05:41.031Z,3.4
2018-08-28T08:05:57.054Z,4.4
2018-08-28T08:06:13.177Z,3.2
2018-08-28T08:06:29.143Z,3.6
2018-08-28T08:06:45.215Z,4.2
2018-08-28T08:07:01.057Z,5.5
2018-08-28T08:07:16.860Z,15.1
2018-08-28T08:07:32.850Z,12.6
2018-08-28T08:07:55.714Z,11.1
2018-08-28T08:08:11.752Z,8.7
2018-08-28T08:08:27.513Z,9
2018-08-28T08:08:43.247Z,9
2018-08-28T08:08:59.279Z,9.8
2018-08-28T08:09:15.225Z,10
2018-08-28T08:09:31.206Z,9.4
2018-08-28T08:09:46.960Z,9.6
2018-08-28T08:10:02.929Z,9.3
2018-08-28T08:10:18.754Z,9.3
2018-08-28T08:10:34.527Z,9.3
2018-08-28T08:10:50.133Z,6.9
2018-08-28T08:11:05.872Z,5.5
2018-08-28T08:11:21.849Z,7.4
2018-08-28T08:11:37.667Z,8.9
2018-08-28T08:11:53.646Z,8.6
2018-08-28T08:12:09.643Z,8.7
2018-08-28T08:12:25.628Z,9.2
2018-08-28T08:12:41.582Z,10.8
2018-08-28T08:12:57.881Z,11.4
2018-08-28T08:13:21.219Z,9.3
2018-08-28T08:13:37.079Z,9.3
2018-08-28T08:13:52.947Z,9.6
2018-08-28T08:14:09.099Z,8.9
2018-08-28T08:14:24.987Z,9.2
2018-08-28T08:14:40.940Z,10
2018-08-28T08:14:56.820Z,9.3
2018-08-28T08:15:12.699Z,9.2
2018-08-28T08:15:28.545Z,9.2
2018-08-28T08:15:44.528Z,8.7
2018-08-28T08:16:00.882Z,8.7
2018-08-28T08:16:17.203Z,9.2
2018-08-28T08:16:33.339Z,9.4
2018-08-28T08:16:49.419Z,8.9
2018-08-28T08:17:05.372Z,8.9
2018-08-28T08:17:21.385Z,9.5
2018-08-28T08:17:37.923Z,9.5
2018-08-28T08:17:53.635Z,9.6
2018-08-28T08:18:09.611Z,9.6
2018-08-28T08:18:25.579Z,9.5
2018-08-28T08:18:41.399Z,9.5
2018-08-28T08:18:57.354Z,9.4
2018-08-28T08:19:13.295Z,9.2
2018-08-28T08:19:29.076Z,9.1
2018-08-28T08:19:44.826Z,8
2018-08-28T08:20:00.816Z,7.9
2018-08-28T08:20:16.816Z,8.8
2018-08-28T08:20:32.546Z,8.9
2018-08-28T08:20:48.624Z,9.5
2018-08-28T08:21:04.590Z,9.5
2018-08-28T08:21:20.361Z,10.3
2018-08-28T08:21:36.164Z,8.8
2018-08-28T08:21:52.078Z,5.7
2018-08-28T08:22:08.239Z,4.9
2018-08-28T08:22:23.999Z,3.1
2018-08-28T08:22:39.777Z,1.4
2018-08-28T08:22:55.796Z,1.1
2018-08-28T08:23:11.582Z,0.9
2018-08-28T08:23:27.568Z,0.8
2018-08-28T08:27:20.811Z,0.6
2018-08-28T08:27:36.785Z,0.7
2018-08-28T08:27:52.627Z,0.7
2018-08-28T08:28:08.523Z,0.7
2018-08-28T08:28:24.273Z,0.7
2018-08-28T08:28:39.985Z,0.7
2018-08-28T08:28:56.009Z,0.7
2018-08-28T08:29:17.763Z,0.9
2018-08-28T08:29:33.542Z,0.8
2018-08-28T08:29:49.375Z,0.9
2018-08-28T08:30:05.522Z,0.9
2018-08-28T08:30:21.568Z,1
2018-08-28T08:30:37.691Z,0.9
2018-08-28T08:30:53.534Z,0.9
2018-08-28T08:31:09.577Z,0.7
2018-08-28T08:31:25.345Z,0.7
2018-08-28T08:31:41.281Z,0.7
2018-08-28T08:31:57.923Z,0.8
2018-08-28T08:32:13.909Z,0.8
2018-08-28T08:32:29.927Z,0.7
2018-08-28T08:32:45.685Z,0.7
2018-08-28T08:33:01.772Z,0.7
2018-08-28T08:33:18.073Z,0.6
2018-08-28T08:33:34.040Z,0.7
2018-08-28T08:33:49.807Z,0.8
2018-08-28T08:34:05.656Z,0.8
2018-08-28T08:34:21.519Z,0.8
2018-08-28T08:34:37.775Z,1
2018-08-28T08:34:53.671Z,0.8
2018-08-28T08:35:10.844Z,0.8
2018-08-28T08:35:26.585Z,0.8
2018-08-28T08:35:42.666Z,0.8
2018-08-28T08:35:58.822Z,0.6
2018-08-28T08:36:14.825Z,0.6
2018-08-28T08:36:31.057Z,0.7
2018-08-28T08:36:47.179Z,0.7
2018-08-28T08:37:02.965Z,0.6
2018-08-28T08:37:18.690Z,0.7
2018-08-28T08:37:34.410Z,0.8
2018-08-28T08:52:22.173Z,10.5
2018-08-28T08:52:37.881Z,13
2018-08-28T08:52:53.600Z,12.8
2018-08-28T08:53:09.402Z,11.6
2018-08-28T08:53:25.118Z,11.3
2018-08-28T08:53:40.847Z,11.2
2018-08-28T08:53:56.642Z,10.7
2018-08-28T08:54:12.392Z,10.9
2018-08-28T08:54:28.291Z,11.1
2018-08-28T08:54:43.997Z,11.5
2018-08-28T08:55:00.925Z,10.6
2018-08-28T08:55:16.574Z,10.6
2018-08-28T08:55:36.119Z,10
2018-08-28T08:55:51.274Z,10.2
2018-08-28T08:56:07.014Z,10.7
2018-08-28T08:56:22.827Z,10.1
2018-08-28T08:56:38.658Z,10.2
2018-08-28T08:56:55.124Z,10.8
2018-08-28T08:57:11.767Z,10.6
2018-08-28T08:57:28.242Z,18.299999
2018-08-28T08:57:44.175Z,12.3
2018-08-28T08:58:00.086Z,13.6
2018-08-28T08:58:15.807Z,13.7
2018-08-28T08:58:31.789Z,10.8
2018-08-28T08:58:47.531Z,11.7
2018-08-28T08:59:03.276Z,11.3
2018-08-28T08:59:19.005Z,10.5
2018-08-28T08:59:34.993Z,9.7
2018-08-28T08:59:50.955Z,8.4
2018-08-28T09:00:06.711Z,8.4
2018-08-28T09:00:22.474Z,8.3
2018-08-28T09:00:38.336Z,8
2018-08-28T09:00:54.153Z,8.2
2018-08-28T09:01:09.906Z,12
2018-08-28T09:01:25.655Z,15.7
2018-08-28T09:01:41.436Z,14.8
2018-08-28T09:01:57.472Z,13.5
2018-08-28T09:02:13.226Z,12.3
2018-08-28T09:02:29.037Z,8.8
2018-08-28T09:02:45.104Z,9.1
2018-08-28T09:03:01.183Z,9.1
2018-08-28T09:03:17.301Z,9.4
2018-08-28T09:03:33.541Z,10.2
2018-08-28T09:03:50.283Z,10.6
2018-08-28T09:04:06.179Z,10.7
2018-08-28T09:04:22.243Z,10.3
2018-08-28T09:04:38.038Z,8.6
2018-08-28T09:04:53.819Z,8
2018-08-28T09:05:09.604Z,8.7
2018-08-28T09:05:25.359Z,8.9
2018-08-28T09:05:41.121Z,9.1
2018-08-28T09:05:58.231Z,8.8
2018-08-28T09:06:14.227Z,8.6
2018-08-28T09:06:29.981Z,8.8
2018-08-28T09:06:45.739Z,8
2018-08-28T09:07:01.830Z,8.6
2018-08-28T09:07:17.840Z,8.7
2018-08-28T09:07:33.721Z,8.2
2018-08-28T09:07:49.888Z,7.8
2018-08-28T09:08:05.770Z,8.3
2018-08-28T09:08:21.760Z,8.4
2018-08-28T09:08:37.655Z,6.7
2018-08-28T09:08:53.429Z,7
2018-08-28T09:09:09.238Z,7.4
2018-08-28T09:09:25.098Z,7.5
2018-08-28T09:09:40.827Z,7.5
2018-08-28T09:09:58.565Z,7.6
2018-08-28T09:10:17.149Z,6.8
2018-08-28T09:10:36.185Z,7
2018-08-28T09:10:55.296Z,7
2018-08-28T09:11:16.073Z,6.4
2018-08-28T09:11:33.063Z,6.9
2018-08-28T09:11:49.116Z,7.6
2018-08-28T09:12:05.195Z,7.4
2018-08-28T09:12:21.152Z,7.6
2018-08-28T09:12:37.009Z,7.3
2018-08-28T09:12:53.309Z,7.3
2018-08-28T09:13:09.152Z,7.6
2018-08-28T09:13:25.773Z,7.9
2018-08-28T09:13:41.560Z,7.7
2018-08-28T09:13:57.676Z,7.8
2018-08-28T09:14:13.799Z,8.3
2018-08-28T09:14:31.975Z,7.9
2018-08-28T09:14:47.805Z,7.8
2018-08-28T09:15:03.621Z,7.5
2018-08-28T09:15:19.384Z,7.8
2018-08-28T09:15:35.160Z,8
2018-08-28T09:15:51.926Z,7.8
2018-08-28T09:16:08.668Z,8.1
2018-08-28T09:16:41.944Z,12.8
2018-08-28T09:16:59.072Z,12.3
2018-08-28T09:17:15.234Z,8.6
2018-08-28T09:17:32.393Z,10.7
2018-08-28T09:17:48.827Z,12.7
2018-08-28T09:18:04.893Z,14.7
2018-08-28T09:18:20.996Z,8.4
2018-08-28T09:18:37.091Z,8.7
2018-08-28T09:18:53.382Z,9.4
2018-08-28T09:41:04.173Z,2.8
2018-08-28T09:41:19.972Z,2.8
2018-08-28T09:41:36.656Z,3.4
2018-08-28T09:41:52.887Z,3.9
2018-08-28T09:42:09.009Z,3.3
2018-08-28T09:42:25.199Z,1.7
2018-08-28T09:42:41.173Z,0.9
2018-08-28T09:42:57.448Z,1
2018-08-28T09:43:13.209Z,1
2018-08-28T09:43:29.300Z,1.9
2018-08-28T09:43:45.489Z,3.3
2018-08-28T09:44:01.400Z,3.7
2018-08-28T09:44:17.180Z,3.6
2018-08-28T09:44:33.051Z,5.8
2018-08-28T09:44:48.800Z,8.4
2018-08-28T09:45:04.594Z,9.3
2018-08-28T09:45:20.305Z,9.3
2018-08-28T09:45:36.043Z,9.5
2018-08-28T09:45:51.786Z,10.6
2018-08-28T09:46:07.542Z,9.8
2018-08-28T09:46:23.261Z,8.7
2018-08-28T09:46:39.105Z,8.8
2018-08-28T09:46:54.847Z,8.9
2018-08-28T09:47:10.701Z,8.8
2018-08-28T09:47:26.495Z,9
2018-08-28T09:47:42.256Z,9.4
2018-08-28T09:47:58.339Z,8.7
2018-08-28T09:48:14.821Z,6.9
2018-08-28T09:48:31.866Z,3.5
2018-08-28T09:48:47.562Z,3.4
2018-08-28T09:49:03.891Z,4
2018-08-28T09:49:19.603Z,4.2
2018-08-28T09:49:35.807Z,3.5
2018-08-28T09:49:51.991Z,3.4
2018-08-28T09:50:08.064Z,3.5
2018-08-28T09:50:24.037Z,3.8
2018-08-28T09:50:40.153Z,3.7
2018-08-28T09:50:55.845Z,3.9
2018-08-28T09:51:12.555Z,3.6
2018-08-28T09:51:28.525Z,2.9
2018-08-28T09:51:44.641Z,3
2018-08-28T09:52:00.801Z,3.1
2018-08-28T09:52:16.587Z,3.1
2018-08-28T09:52:33.912Z,3.8
2018-08-28T09:52:49.936Z,3.8
2018-08-28T09:53:05.997Z,4.4
2018-08-28T09:53:22.114Z,5.1
2018-08-28T09:53:38.258Z,4.8
2018-08-28T09:53:54.517Z,3.6
2018-08-28T09:54:10.929Z,3.4
2018-08-28T09:54:27.421Z,3.4
2018-08-28T09:54:43.552Z,3.9
2018-08-28T09:55:12.755Z,3.6
2018-08-28T09:55:28.856Z,4.1
2018-08-28T09:55:57.318Z,3.6
2018-08-28T09:56:13.672Z,4
2018-08-28T09:56:30.505Z,4.4
2018-08-28T09:56:46.331Z,4.3
2018-08-28T09:57:02.074Z,3.9
2018-08-28T09:57:18.349Z,3.1
2018-08-28T09:57:34.693Z,3.2
2018-08-28T09:57:50.861Z,3.3
2018-08-28T09:58:06.991Z,3
2018-08-28T09:58:23.324Z,2.7
2018-08-28T09:58:40.629Z,2.6
2018-08-28T10:00:47.918Z,3
2018-08-28T10:01:04.002Z,3.3
2018-08-28T10:01:29.150Z,3
2018-08-28T10:01:45.539Z,2.9
2018-08-28T10:02:02.234Z,3.1
2018-08-28T10:02:18.663Z,3.1
2018-08-28T10:07:24.385Z,2.9
2018-08-28T10:07:54.710Z,3
2018-08-28T10:08:10.789Z,3.4
2018-08-28T11:39:59.142Z,1.4
2018-08-28T11:40:15.421Z,1.4
2018-08-28T11:40:31.298Z,1.6
2018-08-28T11:40:47.065Z,1.5
2018-08-28T11:41:04.028Z,1.7
2018-08-28T11:41:19.934Z,1.6
2018-08-28T11:41:35.944Z,1.6
2018-08-28T11:41:51.898Z,1.3
2018-08-28T11:42:07.782Z,1
2018-08-28T11:42:23.694Z,1.2
2018-08-28T11:42:39.823Z,1.4
2018-08-28T11:43:14.856Z,1.5
2018-08-28T11:43:31.166Z,1.2
2018-08-28T11:43:47.372Z,1.3
2018-08-28T11:44:03.471Z,1.2
2018-08-28T11:44:19.806Z,1.2
2018-08-28T11:44:35.584Z,1
2018-08-28T11:44:51.926Z,1.3
2018-08-28T11:45:08.463Z,1.2
2018-08-28T11:45:24.514Z,1
2018-08-28T11:45:40.571Z,1.1
2018-08-28T11:45:56.646Z,0.9
2018-08-28T11:46:12.808Z,1.2
2018-08-28T11:46:29.071Z,1.1
2018-08-28T11:46:45.344Z,1.1
2018-08-28T11:47:01.492Z,1.2
2018-08-28T11:47:17.936Z,1.2
2018-08-28T11:47:33.963Z,1.1
2018-08-28T11:47:50.721Z,1.1
2018-08-28T11:48:07.123Z,1
2018-08-28T11:48:23.232Z,0.8
2018-08-28T11:48:39.533Z,1.1
2018-08-28T11:48:55.664Z,1
2018-08-28T11:49:11.761Z,0.8
2018-08-28T11:49:27.909Z,0.8
2018-08-28T11:49:44.273Z,0.9
2018-08-28T11:50:01.747Z,0.8
2018-08-28T11:50:17.562Z,0.9
2018-08-28T11:50:33.875Z,0.9
2018-08-28T11:50:50.250Z,0.8
2018-08-28T11:51:06.405Z,1
2018-08-28T11:51:22.564Z,1
2018-08-28T11:51:38.717Z,0.9
2018-08-28T11:51:54.807Z,0.9
2018-08-28T11:52:10.844Z,1
2018-08-28T11:52:27.051Z,1.1
2018-08-28T11:52:43.192Z,1.2
2018-08-28T11:53:00.115Z,1.3
2018-08-28T11:53:15.982Z,1.4
2018-08-28T11:53:32.210Z,1.1
2018-08-28T11:53:48.311Z,0.7
2018-08-28T11:54:04.415Z,0.7
2018-08-28T11:54:21.478Z,0.7
2018-08-28T11:54:37.623Z,0.8
2018-08-28T11:54:53.710Z,0.9
2018-08-28T11:55:10.846Z,1
2018-08-28T11:55:27.282Z,1.1
2018-08-28T11:55:43.326Z,1.1
2018-08-28T11:55:59.446Z,1.2
2018-08-28T11:56:15.499Z,1
2018-08-28T11:56:31.638Z,0.9
2018-08-28T11:56:47.962Z,1.1
2018-08-28T11:57:04.096Z,1.1
2018-08-28T11:57:20.194Z,1.1
